Time;durP1;ratioP1;P1;durP2;ratioP2;P2;SDS_P1;SDS_P2;PMS_P1;PMS_P2;Temp;Humidity;BMP_temperature;BMP_pressure;BME280_temperature;BME280_humidity;BME280_pressure;Samples;Min_cycle;Max_cycle;Signal;HPM_P1;HPM_P2
2021/05/13 00:26:48;;;;;;;24.70;18.25;;;;;;;;;;4533917;28;20095;-69
2021/05/13 00:29:15;;;;;;;24.77;16.58;;;;;;;;;;4149797;34;20115;-69
2021/05/13 00:31:42;;;;;;;29.42;16.87;;;;;;;;;;4136305;34;20110;-69
2021/05/13 00:34:08;;;;;;;22.65;15.18;;;;;;;;;;4149092;34;20170;-69
2021/05/13 00:36:35;;;;;;;23.60;16.27;;;;;;;;;;4137484;34;20142;-69
2021/05/13 00:39:03;;;;;;;23.02;15.32;;;;;;;;;;4150050;34;20138;-69
2021/05/13 00:41:29;;;;;;;23.27;15.05;;;;;;;;;;4150028;34;20192;-69
2021/05/13 00:43:56;;;;;;;20.75;14.32;;;;;;;;;;4137595;34;20138;-69
2021/05/13 00:46:23;;;;;;;18.92;13.20;;;;;;;;;;4149955;34;20491;-69
2021/05/13 00:48:49;;;;;;;16.23;12.77;;;;;;;;;;4150002;34;20495;-69
2021/05/13 00:51:15;;;;;;;16.95;12.63;;;;;;;;;;4150101;34;20180;-69
2021/05/13 00:53:44;;;;;;;22.27;13.48;;;;;;;;;;4150014;34;20103;-69
2021/05/13 00:56:11;;;;;;;17.17;11.85;;;;;;;;;;4137615;34;20550;-69
2021/05/13 00:58:39;;;;;;;15.93;13.45;;;;;;;;;;4137574;34;20557;-70
2021/05/13 01:01:07;;;;;;;17.83;12.05;;;;;;;;;;4137620;34;20145;-69
2021/05/13 01:03:35;;;;;;;14.68;12.90;;;;;;;;;;4137642;34;20219;-69
2021/05/13 01:06:05;;;;;;;18.52;13.35;;;;;;;;;;4137497;34;20216;-69
2021/05/13 01:08:31;;;;;;;18.98;14.65;;;;;;;;;;4149956;34;20555;-69
2021/05/13 01:10:57;;;;;;;24.60;15.65;;;;;;;;;;4136926;34;20119;-70
2021/05/13 01:13:25;;;;;;;19.30;16.42;;;;;;;;;;4149881;34;20118;-69
2021/05/13 01:16:07;;;;;;;15.88;14.15;;;;;;;;;;4137331;34;20095;-69
2021/05/13 01:18:33;;;;;;;18.40;10.98;;;;;;;;;;4139130;34;20105;-70
2021/05/13 01:20:59;;;;;;;12.90;9.68;;;;;;;;;;4149628;34;20109;-70
2021/05/13 01:23:25;;;;;;;16.92;9.57;;;;;;;;;;4149709;34;20205;-70
2021/05/13 01:25:54;;;;;;;16.33;8.85;;;;;;;;;;4136716;34;20191;-69
2021/05/13 01:28:27;;;;;;;16.55;8.60;;;;;;;;;;4149592;34;20125;-69
2021/05/13 01:30:54;;;;;;;24.90;8.85;;;;;;;;;;4149628;34;20138;-69
2021/05/13 01:33:21;;;;;;;20.25;8.82;;;;;;;;;;4149865;34;20174;-69
2021/05/13 01:35:47;;;;;;;21.83;8.63;;;;;;;;;;4125892;34;20121;-68
2021/05/13 01:38:14;;;;;;;23.42;8.35;;;;;;;;;;4136983;34;20130;-69
2021/05/13 01:40:41;;;;;;;27.05;9.00;;;;;;;;;;4136797;34;20118;-69
2021/05/13 01:43:07;;;;;;;14.95;8.55;;;;;;;;;;4149436;34;20114;-69
2021/05/13 01:45:33;;;;;;;24.95;9.98;;;;;;;;;;4138501;34;20115;-69
2021/05/13 01:48:03;;;;;;;20.33;8.98;;;;;;;;;;4151683;34;20122;-69
2021/05/13 01:50:32;;;;;;;17.65;8.68;;;;;;;;;;4138690;34;20102;-69
2021/05/13 01:53:01;;;;;;;22.10;9.45;;;;;;;;;;4139137;34;20147;-69
2021/05/13 01:55:27;;;;;;;23.85;10.43;;;;;;;;;;4139063;34;20087;-69
2021/05/13 01:57:53;;;;;;;20.92;10.00;;;;;;;;;;4139123;34;20133;-69
2021/05/13 02:00:20;;;;;;;14.40;10.18;;;;;;;;;;4151726;34;20119;-70
2021/05/13 02:02:48;;;;;;;15.23;10.68;;;;;;;;;;4151284;34;20223;-69
2021/05/13 02:05:15;;;;;;;19.90;11.65;;;;;;;;;;4151405;34;20144;-69
2021/05/13 02:07:41;;;;;;;17.40;11.10;;;;;;;;;;4139188;34;20126;-69
2021/05/13 02:10:10;;;;;;;18.17;10.93;;;;;;;;;;4151235;34;20456;-69
2021/05/13 02:12:39;;;;;;;15.07;10.20;;;;;;;;;;4151163;34;20589;-70
2021/05/13 02:15:10;;;;;;;19.17;8.77;;;;;;;;;;4138757;34;20115;-71
2021/05/13 02:17:36;;;;;;;17.37;9.18;;;;;;;;;;4151550;34;20106;-71
2021/05/13 02:20:10;;;;;;;15.75;8.30;;;;;;;;;;4151255;34;20543;-72
2021/05/13 02:22:36;;;;;;;16.52;8.07;;;;;;;;;;4151342;34;20099;-72
2021/05/13 02:25:04;;;;;;;25.62;8.70;;;;;;;;;;4150206;34;20214;-71
2021/05/13 02:27:30;;;;;;;19.90;9.40;;;;;;;;;;4150891;34;20119;-71
2021/05/13 02:29:56;;;;;;;21.42;10.23;;;;;;;;;;4138645;34;20602;-72
2021/05/13 02:32:22;;;;;;;16.17;10.93;;;;;;;;;;4137593;34;20127;-71
2021/05/13 02:34:48;;;;;;;20.35;10.85;;;;;;;;;;4114281;34;20137;-71
2021/05/13 02:37:14;;;;;;;22.02;9.88;;;;;;;;;;4137608;34;20102;-70
2021/05/13 02:39:40;;;;;;;20.40;10.20;;;;;;;;;;4125385;34;20482;-74
2021/05/13 02:42:05;;;;;;;17.23;9.60;;;;;;;;;;4137615;34;20107;-70
2021/05/13 02:44:31;;;;;;;19.73;10.00;;;;;;;;;;4137575;34;20146;-72
2021/05/13 02:46:57;;;;;;;15.20;10.27;;;;;;;;;;4137533;34;20127;-70
2021/05/13 02:49:23;;;;;;;21.62;12.25;;;;;;;;;;4137565;34;20163;-68
2021/05/13 02:51:49;;;;;;;23.02;11.65;;;;;;;;;;4113738;34;20131;-69
2021/05/13 02:54:15;;;;;;;20.98;11.98;;;;;;;;;;4137517;34;20126;-70
2021/05/13 02:56:41;;;;;;;24.67;12.37;;;;;;;;;;4136701;34;20499;-69
2021/05/13 02:59:08;;;;;;;20.23;11.80;;;;;;;;;;4125152;34;20535;-70
2021/05/13 03:01:34;;;;;;;26.75;12.13;;;;;;;;;;4137494;34;20118;-69
2021/05/13 03:04:00;;;;;;;19.52;11.30;;;;;;;;;;4137443;34;20115;-68
2021/05/13 03:06:27;;;;;;;20.30;11.40;;;;;;;;;;4113792;34;20480;-68
2021/05/13 03:08:57;;;;;;;13.80;9.88;;;;;;;;;;4135535;34;20118;-69
2021/05/13 03:11:23;;;;;;;17.70;10.00;;;;;;;;;;4135197;34;20119;-68
2021/05/13 03:13:52;;;;;;;14.10;9.40;;;;;;;;;;4135092;34;20122;-74
2021/05/13 03:16:18;;;;;;;18.83;10.23;;;;;;;;;;4134918;34;20127;-70
2021/05/13 03:18:49;;;;;;;16.12;9.45;;;;;;;;;;4135166;34;20218;-70
2021/05/13 03:21:29;;;;;;;17.83;8.80;;;;;;;;;;4123250;34;20125;-71
2021/05/13 03:26:55;;;;;;;17.40;9.20;;;;;;;;;;4136817;34;20135;-71
2021/05/13 03:29:17;;;;;;;25.15;9.35;;;;;;;;;;4117943;34;20124;-72
2021/05/13 03:31:43;;;;;;;33.13;8.65;;;;;;;;;;4146767;34;20540;-70
2021/05/13 03:34:09;;;;;;;15.80;8.73;;;;;;;;;;4138203;34;20421;-72
2021/05/13 03:36:35;;;;;;;13.40;7.60;;;;;;;;;;4127100;34;20115;-71
2021/05/13 03:39:04;;;;;;;14.77;7.87;;;;;;;;;;4138332;34;20146;-70
2021/05/13 03:41:30;;;;;;;16.35;7.68;;;;;;;;;;4126945;34;20631;-70
2021/05/13 03:43:56;;;;;;;16.67;8.98;;;;;;;;;;4150720;34;20118;-69
2021/05/13 03:46:22;;;;;;;10.43;6.53;;;;;;;;;;4137959;34;20203;-69
2021/05/13 03:48:48;;;;;;;17.48;7.43;;;;;;;;;;4137952;34;20476;-70
2021/05/13 03:51:14;;;;;;;12.85;6.37;;;;;;;;;;4150356;34;20167;-69
2021/05/13 03:53:40;;;;;;;13.30;6.93;;;;;;;;;;4138028;34;20106;-69
2021/05/13 03:56:06;;;;;;;15.20;6.95;;;;;;;;;;4150412;34;20110;-69
2021/05/13 03:58:37;;;;;;;12.65;6.55;;;;;;;;;;4150605;34;20158;-69
2021/05/13 04:01:15;;;;;;;10.45;6.82;;;;;;;;;;4150382;34;20514;-69
2021/05/13 04:03:40;;;;;;;9.43;6.32;;;;;;;;;;4150508;34;20114;-69
2021/05/13 04:06:06;;;;;;;19.55;6.45;;;;;;;;;;4150530;34;20547;-69
2021/05/13 04:08:32;;;;;;;13.57;6.43;;;;;;;;;;4137649;34;20122;-69
2021/05/13 04:10:58;;;;;;;16.50;7.18;;;;;;;;;;4137689;34;20113;-69
2021/05/13 04:13:25;;;;;;;12.18;6.78;;;;;;;;;;4126758;34;20126;-70
2021/05/13 04:15:52;;;;;;;16.62;6.70;;;;;;;;;;4150384;34;20433;-69
2021/05/13 04:18:18;;;;;;;11.65;6.53;;;;;;;;;;4150312;34;20539;-69
2021/05/13 04:20:44;;;;;;;18.58;7.97;;;;;;;;;;4150193;34;20110;-70
2021/05/13 04:23:10;;;;;;;14.13;7.03;;;;;;;;;;4137745;34;20138;-69
2021/05/13 04:25:37;;;;;;;18.83;8.18;;;;;;;;;;4137575;34;20529;-69
2021/05/13 04:28:03;;;;;;;14.68;7.62;;;;;;;;;;4150197;34;20324;-70
2021/05/13 04:30:29;;;;;;;23.80;7.12;;;;;;;;;;4150063;34;20122;-69
2021/05/13 04:32:55;;;;;;;18.98;6.47;;;;;;;;;;4150221;34;20129;-69
2021/05/13 04:35:21;;;;;;;16.85;6.40;;;;;;;;;;4126511;34;20127;-69
2021/05/13 04:37:47;;;;;;;17.17;7.15;;;;;;;;;;4150030;34;20122;-69
2021/05/13 04:40:13;;;;;;;9.90;6.10;;;;;;;;;;4137831;34;20603;-69
2021/05/13 04:42:39;;;;;;;15.23;5.70;;;;;;;;;;4149977;34;20103;-69
2021/05/13 04:45:06;;;;;;;11.43;5.12;;;;;;;;;;4137582;34;20141;-68
2021/05/13 04:50:08;;;;;;;8.38;5.22;;;;;;;;;;4138693;34;20193;-69
2021/05/13 04:52:38;;;;;;;5.70;3.70;;;;;;;;;;4150016;34;20111;-68
2021/05/13 04:55:05;;;;;;;18.70;4.82;;;;;;;;;;4137808;34;20098;-68
2021/05/13 04:57:31;;;;;;;10.50;4.62;;;;;;;;;;4149895;34;20127;-70
2021/05/13 05:00:02;;;;;;;7.50;4.00;;;;;;;;;;4150134;34;20118;-69
2021/05/13 05:02:29;;;;;;;16.80;5.18;;;;;;;;;;4137808;34;20119;-69
2021/05/13 05:04:55;;;;;;;7.70;4.30;;;;;;;;;;4149706;34;20467;-70
2021/05/13 05:07:21;;;;;;;7.47;3.15;;;;;;;;;;4137358;34;20119;-70
2021/05/13 05:09:48;;;;;;;4.12;1.83;;;;;;;;;;4149641;34;20118;-70
2021/05/13 05:12:14;;;;;;;2.85;2.40;;;;;;;;;;4137068;34;20115;-70
2021/05/13 05:14:40;;;;;;;8.20;2.87;;;;;;;;;;4149851;34;20118;-70
2021/05/13 05:17:07;;;;;;;5.55;2.55;;;;;;;;;;4149549;34;20222;-70
2021/05/13 05:19:33;;;;;;;5.72;2.42;;;;;;;;;;4137887;34;20179;-69
2021/05/13 05:21:59;;;;;;;7.03;2.28;;;;;;;;;;4139178;34;20229;-70
2021/05/13 05:24:25;;;;;;;4.62;2.00;;;;;;;;;;4151683;34;20121;-70
2021/05/13 05:26:51;;;;;;;6.18;2.37;;;;;;;;;;4151284;34;20118;-69
2021/05/13 05:29:17;;;;;;;5.03;2.05;;;;;;;;;;4139108;34;20312;-70
2021/05/13 05:31:43;;;;;;;6.07;2.42;;;;;;;;;;4151247;34;20126;-70
2021/05/13 05:34:09;;;;;;;5.32;2.20;;;;;;;;;;4151653;34;20503;-70
2021/05/13 05:36:35;;;;;;;8.25;2.50;;;;;;;;;;4151492;34;20231;-69
2021/05/13 05:39:01;;;;;;;5.03;2.53;;;;;;;;;;4139261;34;20448;-70
2021/05/13 05:41:27;;;;;;;3.75;2.20;;;;;;;;;;4138912;34;20545;-70
2021/05/13 05:43:53;;;;;;;8.88;4.45;;;;;;;;;;4138965;34;20111;-70
2021/05/13 05:46:19;;;;;;;10.38;6.03;;;;;;;;;;4138756;34;20519;-70
2021/05/13 05:48:45;;;;;;;13.45;4.90;;;;;;;;;;4151494;34;20118;-70
2021/05/13 05:51:11;;;;;;;6.37;4.37;;;;;;;;;;4150063;34;20114;-70
2021/05/13 05:53:37;;;;;;;9.68;4.72;;;;;;;;;;4151701;34;20126;-70
2021/05/13 05:56:04;;;;;;;9.00;4.90;;;;;;;;;;4151276;34;20103;-70
2021/05/13 05:58:29;;;;;;;13.55;5.45;;;;;;;;;;4151381;34;20119;-70
2021/05/13 06:00:55;;;;;;;8.95;5.40;;;;;;;;;;4151355;34;20187;-70
2021/05/13 06:03:21;;;;;;;9.48;6.32;;;;;;;;;;4139142;34;20514;-70
2021/05/13 06:05:48;;;;;;;10.60;5.72;;;;;;;;;;4151409;34;20119;-70
2021/05/13 06:08:14;;;;;;;11.30;5.75;;;;;;;;;;4151389;34;20109;-69
2021/05/13 06:10:40;;;;;;;17.85;7.65;;;;;;;;;;4138693;34;20516;-69
2021/05/13 06:13:07;;;;;;;16.52;8.02;;;;;;;;;;4139011;34;20103;-70
2021/05/13 06:15:34;;;;;;;12.90;6.40;;;;;;;;;;4151013;34;20119;-71
2021/05/13 06:18:00;;;;;;;12.32;6.75;;;;;;;;;;4151229;34;20222;-69
2021/05/13 06:20:30;;;;;;;9.90;7.25;;;;;;;;;;4127533;34;20206;-71
2021/05/13 06:22:56;;;;;;;13.48;7.62;;;;;;;;;;4138437;34;20281;-71
2021/05/13 06:25:23;;;;;;;11.45;7.12;;;;;;;;;;4138795;34;20145;-71
2021/05/13 06:27:49;;;;;;;12.07;7.15;;;;;;;;;;4150761;34;20211;-70
2021/05/13 06:30:15;;;;;;;14.25;7.62;;;;;;;;;;4116431;34;20231;-75
2021/05/13 06:32:42;;;;;;;12.13;7.68;;;;;;;;;;4150909;34;20105;-69
2021/05/13 06:35:09;;;;;;;14.32;8.13;;;;;;;;;;4138689;34;20541;-72
2021/05/13 06:37:35;;;;;;;12.93;7.85;;;;;;;;;;4151063;34;20209;-71
2021/05/13 06:40:01;;;;;;;13.38;7.90;;;;;;;;;;4151053;34;20138;-72
2021/05/13 06:42:27;;;;;;;16.52;7.87;;;;;;;;;;4150959;34;20671;-70
2021/05/13 06:44:53;;;;;;;14.63;8.57;;;;;;;;;;4138400;34;20105;-70
2021/05/13 06:47:19;;;;;;;17.50;9.15;;;;;;;;;;4138529;34;20122;-71
2021/05/13 06:49:45;;;;;;;16.60;9.25;;;;;;;;;;4138351;34;20130;-71
2021/05/13 06:52:11;;;;;;;19.95;8.95;;;;;;;;;;4150957;34;20099;-71
2021/05/13 06:54:37;;;;;;;25.98;9.75;;;;;;;;;;4150946;34;20117;-71
2021/05/13 06:57:03;;;;;;;19.02;12.13;;;;;;;;;;4150826;34;20114;-72
2021/05/13 06:59:29;;;;;;;22.52;13.88;;;;;;;;;;4150612;34;20471;-70
2021/05/13 07:01:55;;;;;;;24.33;13.05;;;;;;;;;;4150706;34;20096;-70
2021/05/13 07:04:24;;;;;;;17.77;12.02;;;;;;;;;;4138330;34;20540;-74
2021/05/13 07:06:50;;;;;;;22.00;11.93;;;;;;;;;;4148032;34;20130;-71
2021/05/13 07:09:17;;;;;;;17.08;9.10;;;;;;;;;;4126858;34;20115;-70
2021/05/13 07:11:43;;;;;;;12.23;7.95;;;;;;;;;;4136971;34;20144;-70
2021/05/13 07:14:09;;;;;;;14.07;8.07;;;;;;;;;;4150994;34;20127;-69
2021/05/13 07:16:35;;;;;;;11.07;8.50;;;;;;;;;;4149712;34;20496;-70
2021/05/13 07:19:03;;;;;;;17.37;7.80;;;;;;;;;;4150990;34;20119;-70
2021/05/13 07:21:29;;;;;;;12.43;8.13;;;;;;;;;;4150721;34;20111;-71
2021/05/13 07:23:55;;;;;;;15.65;8.32;;;;;;;;;;4150266;34;20187;-71
2021/05/13 07:26:22;;;;;;;13.02;7.80;;;;;;;;;;4134792;34;20119;-71
2021/05/13 07:28:49;;;;;;;13.45;7.93;;;;;;;;;;4146337;34;20467;-71
2021/05/13 07:31:15;;;;;;;13.18;7.97;;;;;;;;;;4137481;34;20103;-72
2021/05/13 07:33:41;;;;;;;10.50;7.47;;;;;;;;;;4138119;34;20114;-71
2021/05/13 07:36:07;;;;;;;15.10;7.78;;;;;;;;;;4138028;34;20158;-71
2021/05/13 07:38:34;;;;;;;31.65;14.57;;;;;;;;;;4150574;34;20141;-71
2021/05/13 07:41:02;;;;;;;15.80;9.80;;;;;;;;;;4150519;34;20210;-70
2021/05/13 07:43:31;;;;;;;12.07;7.60;;;;;;;;;;4150288;34;20597;-70
2021/05/13 07:45:57;;;;;;;13.05;7.93;;;;;;;;;;4149115;34;20203;-70
2021/05/13 07:48:27;;;;;;;14.55;8.63;;;;;;;;;;4138082;34;20123;-71
2021/05/13 07:50:54;;;;;;;10.25;5.82;;;;;;;;;;4150453;34;20217;-71
2021/05/13 07:53:20;;;;;;;10.45;7.05;;;;;;;;;;4144136;34;20587;-68
2021/05/13 07:55:46;;;;;;;10.70;6.25;;;;;;;;;;4124011;34;20134;-68
2021/05/13 07:58:12;;;;;;;11.65;6.37;;;;;;;;;;4150420;34;20130;-70
2021/05/13 08:00:39;;;;;;;9.20;6.20;;;;;;;;;;4137848;34;20295;-74
2021/05/13 08:03:05;;;;;;;9.90;6.87;;;;;;;;;;4150469;34;20084;-72
2021/05/13 08:05:32;;;;;;;11.80;7.35;;;;;;;;;;4137603;34;20500;-71
2021/05/13 08:07:58;;;;;;;12.02;6.53;;;;;;;;;;4150355;34;20142;-69
2021/05/13 08:10:24;;;;;;;12.77;5.80;;;;;;;;;;4150227;34;20119;-70
2021/05/13 08:12:50;;;;;;;10.20;6.70;;;;;;;;;;4149949;34;20303;-70
2021/05/13 08:15:15;;;;;;;9.93;5.90;;;;;;;;;;4150146;34;20276;-70
2021/05/13 08:17:42;;;;;;;10.48;6.70;;;;;;;;;;4150012;34;20616;-69
2021/05/13 08:20:09;;;;;;;11.68;5.78;;;;;;;;;;4137862;34;20113;-73
2021/05/13 08:22:35;;;;;;;7.47;5.40;;;;;;;;;;4149933;34;20202;-74
2021/05/13 08:25:03;;;;;;;12.37;5.82;;;;;;;;;;4137408;34;20206;-69
2021/05/13 08:27:30;;;;;;;7.80;5.20;;;;;;;;;;4134867;34;20110;-73
2021/05/13 08:29:59;;;;;;;11.23;5.90;;;;;;;;;;4136620;34;20114;-72
2021/05/13 08:32:25;;;;;;;8.98;5.80;;;;;;;;;;4145800;34;20104;-70
2021/05/13 08:34:52;;;;;;;11.55;5.85;;;;;;;;;;4150154;34;20104;-69
2021/05/13 08:37:19;;;;;;;6.97;5.03;;;;;;;;;;4149849;34;20143;-69
2021/05/13 08:39:44;;;;;;;9.10;4.95;;;;;;;;;;4137636;34;20551;-72
2021/05/13 08:42:14;;;;;;;9.02;4.93;;;;;;;;;;4149892;34;20452;-68
2021/05/13 08:44:44;;;;;;;8.20;4.03;;;;;;;;;;4150192;34;20295;-70
2021/05/13 08:47:10;;;;;;;11.80;5.68;;;;;;;;;;4137465;34;20527;-69
2021/05/13 08:49:37;;;;;;;8.10;4.90;;;;;;;;;;4137881;34;20098;-70
2021/05/13 08:52:13;;;;;;;10.60;5.47;;;;;;;;;;4149723;34;20127;-70
2021/05/13 08:54:58;;;;;;;10.02;5.97;;;;;;;;;;4147597;34;20126;-69
2021/05/13 08:57:25;;;;;;;16.02;6.10;;;;;;;;;;4149867;34;20809;-69
2021/05/13 08:59:51;;;;;;;10.05;6.28;;;;;;;;;;4137450;34;20138;-69
2021/05/13 09:02:17;;;;;;;12.98;6.15;;;;;;;;;;4137275;34;20123;-71
2021/05/13 09:04:48;;;;;;;9.32;5.85;;;;;;;;;;4150145;34;20153;-70
2021/05/13 09:07:26;;;;;;;12.80;6.07;;;;;;;;;;4137377;34;20142;-73
2021/05/13 09:10:03;;;;;;;9.32;6.18;;;;;;;;;;4149409;34;20127;-75
2021/05/13 09:12:30;;;;;;;9.88;6.05;;;;;;;;;;4149570;34;20542;-74
2021/05/13 09:15:07;;;;;;;15.20;6.00;;;;;;;;;;4149669;34;20131;-76
2021/05/13 09:17:33;;;;;;;7.87;5.35;;;;;;;;;;4149713;34;20129;-70
2021/05/13 09:20:00;;;;;;;12.65;6.35;;;;;;;;;;4137121;34;20145;-70
2021/05/13 09:22:28;;;;;;;6.70;5.28;;;;;;;;;;4149549;34;20106;-69
2021/05/13 09:24:55;;;;;;;11.20;6.32;;;;;;;;;;4137103;34;20171;-70
2021/05/13 09:27:27;;;;;;;7.85;5.40;;;;;;;;;;4136770;34;20138;-73
2021/05/13 09:30:17;;;;;;;10.45;6.20;;;;;;;;;;4149731;34;20134;-72
2021/05/13 09:32:54;;;;;;;9.40;5.45;;;;;;;;;;4149475;34;20134;-73
2021/05/13 09:35:24;;;;;;;13.70;6.45;;;;;;;;;;4149623;34;20115;-73
2021/05/13 09:37:51;;;;;;;8.30;6.22;;;;;;;;;;4149389;34;20451;-69
2021/05/13 09:40:42;;;;;;;15.65;6.50;;;;;;;;;;4149434;34;20129;-69
2021/05/13 09:43:15;;;;;;;12.48;6.45;;;;;;;;;;4149683;34;20138;-69
2021/05/13 09:45:52;;;;;;;12.70;7.03;;;;;;;;;;4149431;34;20123;-69
2021/05/13 09:48:41;;;;;;;16.02;7.45;;;;;;;;;;4149407;34;20131;-68
2021/05/13 09:51:23;;;;;;;13.80;7.03;;;;;;;;;;4149411;34;20182;-69
2021/05/13 09:54:08;;;;;;;17.12;7.15;;;;;;;;;;4149271;34;20235;-69
2021/05/13 09:56:35;;;;;;;11.65;7.03;;;;;;;;;;4135612;34;20222;-70
2021/05/13 09:59:34;;;;;;;16.33;6.75;;;;;;;;;;4148970;34;20585;-70
2021/05/13 10:02:04;;;;;;;14.73;6.47;;;;;;;;;;4149135;34;20111;-69
2021/05/13 10:04:30;;;;;;;10.93;6.10;;;;;;;;;;4149070;34;20095;-70
2021/05/13 10:06:56;;;;;;;19.67;7.20;;;;;;;;;;4138462;34;20099;-69
2021/05/13 10:09:22;;;;;;;11.55;5.82;;;;;;;;;;4138753;34;20119;-68
2021/05/13 10:11:52;;;;;;;17.65;5.20;;;;;;;;;;4150948;34;20113;-71
2021/05/13 10:14:24;;;;;;;11.07;5.82;;;;;;;;;;4151463;34;20130;-69
2021/05/13 10:16:53;;;;;;;10.63;5.32;;;;;;;;;;4150958;34;20103;-71
2021/05/13 10:19:30;;;;;;;12.05;5.30;;;;;;;;;;4138589;34;20111;-69
2021/05/13 10:21:56;;;;;;;9.52;5.15;;;;;;;;;;4138587;34;20541;-65
2021/05/13 10:24:22;;;;;;;7.25;4.85;;;;;;;;;;4149582;34;20111;-69
2021/05/13 10:26:49;;;;;;;10.73;5.18;;;;;;;;;;4149287;34;20149;-70
2021/05/13 10:29:22;;;;;;;14.00;5.90;;;;;;;;;;4138963;34;20435;-69
2021/05/13 10:32:03;;;;;;;11.45;4.70;;;;;;;;;;4151023;34;20523;-69
2021/05/13 10:34:41;;;;;;;7.25;5.10;;;;;;;;;;4151082;34;20225;-69
2021/05/13 10:37:31;;;;;;;6.05;4.95;;;;;;;;;;4151044;34;20126;-68
2021/05/13 10:42:39;;;;;;;6.57;4.60;;;;;;;;;;4151089;34;20087;-75
2021/05/13 10:45:23;;;;;;;12.05;6.72;;;;;;;;;;4150483;34;20200;-69
2021/05/13 10:48:10;;;;;;;10.10;5.07;;;;;;;;;;4151222;34;20134;-70
2021/05/13 10:50:46;;;;;;;8.07;4.00;;;;;;;;;;4150893;34;20123;-70
2021/05/13 10:53:33;;;;;;;7.47;4.65;;;;;;;;;;4151236;34;20569;-71
2021/05/13 10:56:28;;;;;;;9.82;4.80;;;;;;;;;;4150865;34;20138;-71
2021/05/13 10:59:09;;;;;;;16.67;4.90;;;;;;;;;;4151206;34;20130;-71
2021/05/13 11:01:44;;;;;;;8.70;4.22;;;;;;;;;;4150778;34;20227;-71
2021/05/13 11:04:37;;;;;;;8.65;4.32;;;;;;;;;;4150938;34;20126;-69
2021/05/13 11:07:12;;;;;;;8.50;4.35;;;;;;;;;;4148161;34;20207;-70
2021/05/13 11:09:42;;;;;;;7.80;4.07;;;;;;;;;;4150693;34;20118;-69
2021/05/13 11:12:18;;;;;;;11.55;4.30;;;;;;;;;;4150724;34;20152;-69
2021/05/13 11:14:57;;;;;;;5.32;3.37;;;;;;;;;;4150028;34;20606;-69
2021/05/13 11:20:23;;;;;;;8.57;4.82;;;;;;;;;;4150767;34;20112;-70
2021/05/13 11:23:03;;;;;;;7.93;4.82;;;;;;;;;;4150831;34;20107;-73
2021/05/13 11:25:42;;;;;;;7.35;4.82;;;;;;;;;;4151008;34;20114;-71
2021/05/13 11:28:43;;;;;;;8.68;4.35;;;;;;;;;;4150792;34;20138;-71
2021/05/13 11:31:14;;;;;;;7.12;4.35;;;;;;;;;;4150545;34;20703;-71
2021/05/13 11:33:46;;;;;;;9.95;4.70;;;;;;;;;;4150707;34;20215;-71
2021/05/13 11:36:16;;;;;;;12.93;4.78;;;;;;;;;;4150586;34;20104;-71
2021/05/13 11:38:43;;;;;;;8.13;4.43;;;;;;;;;;4150871;34;20516;-71
2021/05/13 11:41:09;;;;;;;7.12;4.87;;;;;;;;;;4150479;34;20540;-72
2021/05/13 11:43:39;;;;;;;7.40;4.05;;;;;;;;;;4138103;34;20126;-75
2021/05/13 11:46:12;;;;;;;8.32;4.30;;;;;;;;;;4150698;34;20138;-71
2021/05/13 11:48:42;;;;;;;9.50;4.57;;;;;;;;;;4150877;34;20128;-76
2021/05/13 11:51:13;;;;;;;7.75;5.00;;;;;;;;;;4149006;34;20150;-70
2021/05/13 11:53:40;;;;;;;11.30;5.35;;;;;;;;;;4150511;34;20510;-70
2021/05/13 11:56:07;;;;;;;8.85;5.43;;;;;;;;;;4150649;34;20119;-71
2021/05/13 11:58:44;;;;;;;8.30;4.62;;;;;;;;;;4150546;34;20206;-68
2021/05/13 12:01:23;;;;;;;6.18;4.50;;;;;;;;;;4150456;34;20110;-70
2021/05/13 12:03:51;;;;;;;11.63;4.62;;;;;;;;;;4150813;34;20103;-70
2021/05/13 12:06:17;;;;;;;9.57;4.78;;;;;;;;;;4126739;34;20115;-70
2021/05/13 12:08:43;;;;;;;9.00;4.55;;;;;;;;;;4126919;34;20472;-69
2021/05/13 12:11:28;;;;;;;9.40;4.72;;;;;;;;;;4150283;34;20565;-70
2021/05/13 12:13:55;;;;;;;8.47;4.60;;;;;;;;;;4150827;34;20438;-71
2021/05/13 12:16:23;;;;;;;6.47;4.37;;;;;;;;;;4137937;34;20195;-70
2021/05/13 12:18:55;;;;;;;6.90;4.78;;;;;;;;;;4150450;34;20107;-74
2021/05/13 12:21:21;;;;;;;12.70;4.45;;;;;;;;;;4127345;34;20129;-70
2021/05/13 12:23:48;;;;;;;13.48;5.03;;;;;;;;;;4137703;34;20119;-70
2021/05/13 12:26:20;;;;;;;9.57;4.80;;;;;;;;;;4137912;34;20119;-70
2021/05/13 12:28:46;;;;;;;5.37;3.75;;;;;;;;;;4137972;34;20130;-71
2021/05/13 12:31:32;;;;;;;8.65;3.87;;;;;;;;;;4126280;34;20159;-70
2021/05/13 12:34:04;;;;;;;7.95;4.97;;;;;;;;;;4138709;34;20095;-70
2021/05/13 12:36:35;;;;;;;8.05;4.43;;;;;;;;;;4150071;34;20192;-70
2021/05/13 12:39:01;;;;;;;11.12;4.78;;;;;;;;;;4150238;34;20111;-70
2021/05/13 12:41:28;;;;;;;5.60;4.68;;;;;;;;;;4150036;34;20135;-70
2021/05/13 12:44:07;;;;;;;6.35;4.30;;;;;;;;;;4150147;34;20202;-73
2021/05/13 12:46:42;;;;;;;13.70;5.30;;;;;;;;;;4149883;34;20111;-72
2021/05/13 12:49:20;;;;;;;11.20;5.03;;;;;;;;;;4137748;34;20103;-71
2021/05/13 12:52:06;;;;;;;7.30;4.75;;;;;;;;;;4137713;34;20099;-69
2021/05/13 12:54:42;;;;;;;9.68;4.50;;;;;;;;;;4148668;34;20113;-73
2021/05/13 12:57:18;;;;;;;10.93;4.65;;;;;;;;;;4138205;34;20201;-75
2021/05/13 12:59:55;;;;;;;8.27;5.03;;;;;;;;;;4137873;34;20099;-75
2021/05/13 13:02:25;;;;;;;9.73;4.37;;;;;;;;;;4137428;34;20104;-73
2021/05/13 13:04:53;;;;;;;8.50;5.00;;;;;;;;;;4150171;34;20436;-70
2021/05/13 13:07:40;;;;;;;12.18;5.35;;;;;;;;;;4137398;34;20573;-70
2021/05/13 13:10:31;;;;;;;7.72;4.28;;;;;;;;;;4148240;34;20126;-72
2021/05/13 13:13:08;;;;;;;10.23;5.10;;;;;;;;;;4149903;34;20111;-70
2021/05/13 13:15:48;;;;;;;12.13;5.70;;;;;;;;;;4137911;34;20119;-69
2021/05/13 13:18:15;;;;;;;9.43;4.85;;;;;;;;;;4149906;34;20596;-71
2021/05/13 13:20:42;;;;;;;8.48;3.87;;;;;;;;;;4149504;34;20099;-70
2021/05/13 13:23:17;;;;;;;9.15;4.50;;;;;;;;;;4137446;34;20134;-70
2021/05/13 13:25:43;;;;;;;7.50;3.55;;;;;;;;;;4149389;34;20472;-70
2021/05/13 13:28:09;;;;;;;12.30;3.95;;;;;;;;;;4149674;34;20130;-69
2021/05/13 13:30:35;;;;;;;7.28;4.07;;;;;;;;;;4149428;34;20536;-69
2021/05/13 13:33:19;;;;;;;17.33;4.32;;;;;;;;;;4149546;34;20222;-70
2021/05/13 13:35:45;;;;;;;9.32;4.47;;;;;;;;;;4137013;34;20190;-69
2021/05/13 13:38:11;;;;;;;10.68;4.78;;;;;;;;;;4149615;34;20114;-70
2021/05/13 13:40:38;;;;;;;14.77;4.85;;;;;;;;;;4150627;34;20131;-71
2021/05/13 13:43:04;;;;;;;10.90;4.68;;;;;;;;;;4128314;34;20123;-71
2021/05/13 13:45:32;;;;;;;9.90;4.28;;;;;;;;;;4151712;34;20123;-70
2021/05/13 13:48:08;;;;;;;6.40;3.90;;;;;;;;;;4151647;34;20113;-71
2021/05/13 13:50:37;;;;;;;15.65;3.85;;;;;;;;;;4151495;34;20116;-72
2021/05/13 13:53:04;;;;;;;7.97;3.70;;;;;;;;;;4151651;34;20118;-71
2021/05/13 13:55:30;;;;;;;8.23;3.37;;;;;;;;;;4138986;34;20122;-70
2021/05/13 13:57:57;;;;;;;6.40;3.60;;;;;;;;;;4151912;34;20564;-69
2021/05/13 14:00:23;;;;;;;6.57;3.62;;;;;;;;;;4138957;34;20127;-69
2021/05/13 14:02:52;;;;;;;10.68;4.60;;;;;;;;;;4151335;34;20207;-69
2021/05/13 14:05:19;;;;;;;8.55;4.55;;;;;;;;;;4151649;34;20122;-69
2021/05/13 14:07:45;;;;;;;9.00;4.18;;;;;;;;;;4138779;34;20793;-71
2021/05/13 14:10:12;;;;;;;14.30;4.82;;;;;;;;;;4151605;34;20491;-71
2021/05/13 14:12:39;;;;;;;13.35;4.03;;;;;;;;;;4151517;34;20206;-70
2021/05/13 14:15:05;;;;;;;10.05;3.85;;;;;;;;;;4151594;34;20194;-70
2021/05/13 14:17:31;;;;;;;7.60;3.90;;;;;;;;;;4139091;34;20111;-71
2021/05/13 14:19:58;;;;;;;9.27;3.92;;;;;;;;;;4151288;34;20123;-71
2021/05/13 14:22:24;;;;;;;13.93;3.60;;;;;;;;;;4151245;34;20130;-71
2021/05/13 14:24:51;;;;;;;7.18;3.80;;;;;;;;;;4138885;34;20125;-71
2021/05/13 14:27:17;;;;;;;7.20;3.60;;;;;;;;;;4138065;34;20173;-72
2021/05/13 14:29:42;;;;;;;5.90;3.87;;;;;;;;;;4151170;34;20171;-71
2021/05/13 14:32:08;;;;;;;5.87;3.75;;;;;;;;;;4138428;34;20126;-71
2021/05/13 14:34:34;;;;;;;3.70;3.28;;;;;;;;;;4138404;34;20134;-70
2021/05/13 14:37:00;;;;;;;4.43;2.78;;;;;;;;;;4151251;34;20106;-69
2021/05/13 14:39:27;;;;;;;4.07;2.87;;;;;;;;;;4151342;34;20460;-69
2021/05/13 14:41:53;;;;;;;10.35;3.00;;;;;;;;;;4151008;34;20102;-69
2021/05/13 14:44:19;;;;;;;9.68;3.53;;;;;;;;;;4144424;34;20122;-70
2021/05/13 14:46:45;;;;;;;8.15;3.50;;;;;;;;;;4149133;34;20115;-69
2021/05/13 14:49:31;;;;;;;8.50;4.22;;;;;;;;;;4150709;34;20197;-69
2021/05/13 14:51:57;;;;;;;6.68;3.60;;;;;;;;;;4147670;34;20119;-68
2021/05/13 14:54:24;;;;;;;10.80;3.58;;;;;;;;;;4141910;34;20157;-68
2021/05/13 14:56:55;;;;;;;8.88;3.67;;;;;;;;;;4125075;34;20592;-68
2021/05/13 14:59:22;;;;;;;13.38;3.50;;;;;;;;;;4128550;34;20187;-68
2021/05/13 15:01:50;;;;;;;9.25;4.87;;;;;;;;;;4137196;34;20104;-68
2021/05/13 15:04:15;;;;;;;8.27;4.18;;;;;;;;;;4137263;34;20098;-67
2021/05/13 15:06:41;;;;;;;5.72;3.75;;;;;;;;;;4137333;34;20111;-67
2021/05/13 15:09:07;;;;;;;6.40;3.97;;;;;;;;;;4140838;34;20467;-68
2021/05/13 15:11:33;;;;;;;13.32;4.18;;;;;;;;;;4150214;34;20570;-68
2021/05/13 15:14:00;;;;;;;9.63;4.62;;;;;;;;;;4132999;34;20115;-70
2021/05/13 15:16:26;;;;;;;7.95;4.20;;;;;;;;;;4137333;34;20119;-70
2021/05/13 15:19:06;;;;;;;10.10;4.07;;;;;;;;;;4137525;34;20208;-70
2021/05/13 15:21:32;;;;;;;9.20;5.10;;;;;;;;;;4137045;34;20182;-69